Tiempo atmosférico en la estación meteorológica de Aldeanueva de Serrezuela, Segovia (1135 m.)



Fecha
DESCASC
Temp. máxima en grados centígrados (hora)
DESCASC
Temp. mínima en grados centígrados (hora)
DESCASC
Temp. media en grados centígrados
DESCASC
Racha de viento máxima en m/sg (hora)
DESCASC
Velocidad máxima media en intervalos de 10 minutos(hora)
DESCASC
Precipitaciones diarias en mm
DESCASC
Precipitaciones de 00:00 a 06:00 en mm
DESCASC
Precipitaciones de 06:00 a 12:00 en mm
DESCASC
Precipitaciones de 12:00 a 18:00 en mm
DESCASC
Precipitaciones de 18:00 a 24:00 en mm
DESCASC
22-04-2019 14.1 (17:30) 5.2 (02:10) 9.7 9.17 (17:40) 5.56 (23:30) 0.2 0 0 0 0.2
21-04-2019 9.7 (00:00) 4.8 (06:40) 7.3 14.17 (03:50) 8.61 (04:00) 0 0 0 0 0
20-04-2019 16.3 (15:50) 7.3 (06:20) 11.8 21.39 (11:40) 15 (11:40) 0 0 0 0 0
19-04-2019 10.6 (18:40) 5.6 (02:20) 8.1 17.5 (19:20) 11.11 (19:50) 0.4 0 0 0.2 0.2
18-04-2019 12.1 (01:20) 6 (00:00) 9.1 13.61 (03:20) 8.61 (02:40) 11.4 4.6 3.2 1.8 1.8
17-04-2019 17.4 (16:10) 9.5 (00:00) 13.4 23.33 (20:20) 10.83 (20:20) 6.2 0 0 0 6.2
16-04-2019 17.4 (18:00) 4.1 (00:00) 10.7 8.33 (19:30) 6.11 (19:30) 0 0 0 0 0
15-04-2019 19.9 (17:20) 6.9 (00:00) 13.4 20.28 (16:30) 13.89 (16:20) 0.2 0 0 0 0.2
14-04-2019 17.2 (18:20) 9 (00:00) 13.1 9.44 (05:20) 6.67 (06:00) 0 0 0 0 0
13-04-2019 16.4 (17:10) 4.8 (00:00) 10.6 8.33 (16:30) 4.72 (17:20) 0 0 0 0 0
12-04-2019 12.5 (17:40) 0.6 (00:00) 6.6 9.72 (16:40) 4.72 (18:50) 0 0 0 0 0
11-04-2019 8.9 (16:50) 0.5 (00:00) 4.7 7.5 (16:50) 4.72 (15:00) 0 0 0 0 0
10-04-2019 8.3 (18:10) 2.1 (00:00) 5.2 11.67 (02:30) 7.22 (02:00) 0.8 0 0.4 0.4 0
09-04-2019 7.6 (19:30) 2.4 (00:00) 5 15.28 (16:40) 10.83 (16:20) 4.6 0 1 3.6 0
08-04-2019 10 (15:50) 4.1 (00:00) 7 15 (08:00) 9.72 (08:00) 3.2 0.6 1 1.6 0
07-04-2019 8.3 (17:00) 0.4 (00:00) 4.4 14.72 (01:30) 9.44 (00:30) 2.6 0 0 0 2.6
06-04-2019 5 (16:30) 0 (00:00) 2.5 22.22 (16:50) 13.89 (16:50) 4.6 1 2.2 1.4 0
05-04-2019 3.2 (10:10) -0.3 (00:00) 1.5 11.11 (05:30) 7.5 (05:30) 4.8 0.6 1.8 2.4 0
04-04-2019 9.2 (17:30) -4 (-00:0) 2.6 12.5 (17:30) 8.33 (17:30) 0 0 0 0 0
03-04-2019 8.8 (15:40) -0.4 (23:20) 4.2 12.5 (16:10) 8.06 (15:50) 0 0 0 0 0
02-04-2019 15 (18:20) 5.1 (00:00) 10 12.78 (18:10) 7.5 (18:10) 0 0 0 0 0
01-04-2019 14.7 (17:30) 3 (00:00) 8.8 11.11 (00:20) 7.22 (00:20) 0 0 0 0 0
31-03-2019 13.8 (13:40) 5 (00:00) 9.4 13.89 (20:00) 8.61 (22:10) 0 0 0 0 0
30-03-2019 15.6 (17:10) 5.1 (00:00) 10.4 12.22 (01:00) 8.06 (01:00) 0 0 0 0 0
29-03-2019 15.5 (16:00) 5.8 (00:00) 10.7 10.56 (23:59) 7.78 (23:59) 0 0 0 0 0
28-03-2019 15.9 (17:00) 4.4 (00:00) 10.1 12.5 (02:20) 7.78 (02:20) 0 0 0 0 0
27-03-2019 16.4 (17:40) 3.8 (00:00) 10.1 12.5 (04:50) 8.33 (04:50) 0 0 0 0 0
26-03-2019 15.5 (16:10) 0 (00:00) 7.8 14.72 (11:00) 9.72 (14:30) 0 0 0 0 0
25-03-2019 14.3 (15:20) 1.4 (00:00) 7.9 10.56 (00:50) 6.67 (00:50) 0 0 0 0 0

Gráficas

Temp. máximas Temp. mínimas Temp. medias Precipitaciones Rachas de viento máximas Velocidades máximas media en intervalos de 10 minutos

Datos horarios

Fecha y hora oficial Temperatura (ºC) Velocidad del viento (km/h) Dirección del viento Racha (km/h) Dirección de racha Precipitación (mm) Presión (hPa) Tendencia (hPa) Humedad (%)
2019-04-23 23:00:00 2.4 24 Sudoeste 40 Sudoeste 0 -- -- 99
2019-04-23 22:00:00 2.6 23 Sudoeste 34 Sudoeste 0.2 -- -- 98
2019-04-23 21:00:00 2.5 23 Sudoeste 37 Sudoeste 0 -- -- 97
2019-04-23 20:00:00 2.3 21 Sur 35 Sudoeste 1.6 -- -- 96
2019-04-23 19:00:00 2.3 31 Sudoeste 59 Sudoeste 0.6 -- -- 92
2019-04-23 18:00:00 6.4 12 Sur 36 Sur 1 -- -- 78
2019-04-23 17:00:00 7.6 12 Oeste 22 Oeste 0 -- -- 75
2019-04-23 16:00:00 5.6 7 Sudoeste 28 Sudoeste 0 -- -- 92
2019-04-23 15:00:00 4.4 18 Oeste 30 Oeste 0.4 -- -- 95
2019-04-23 14:00:00 4.5 20 Oeste 31 Sudoeste 0.8 -- -- 96
2019-04-23 13:00:00 4.5 18 Oeste 36 Oeste 0 -- -- 97
2019-04-23 12:00:00 5.2 13 Sudoeste 27 Sudoeste 1.4 -- -- 99
2019-04-23 11:00:00 4.4 19 Sudoeste 27 Sudoeste 0.6 -- -- 98
2019-04-23 10:00:00 4.9 8 Sudoeste 20 Oeste 0.2 -- -- 97
2019-04-23 09:00:00 5.2 11 Oeste 26 Sudoeste 0.2 -- -- 95
2019-04-23 08:00:00 7.1 15 Sudoeste 26 Sudoeste 0 -- -- 86
2019-04-23 07:00:00 7.7 18 Sudoeste 28 Sur 0 -- -- 82
2019-04-23 06:00:00 7.6 17 Sur 28 Sur 0 -- -- 85
2019-04-23 05:00:00 7.6 17 Sur 25 Sur 0.4 -- -- 92
2019-04-23 04:00:00 7.6 11 Sudoeste 24 Sudoeste 0.4 -- -- 94
2019-04-23 03:00:00 8.5 19 Sudoeste 34 Sudoeste 0 -- -- 87
2019-04-23 02:00:00 9 14 Sur 36 Sudoeste 0.2 -- -- 81
2019-04-23 01:00:00 9.7 14 Sur 24 Sur 0 -- -- 73
2019-04-23 00:00:00 9.1 16 Sur 32 Sur 0.2 -- -- 79
2019-04-22 23:00:00 9.4 10 Sur 20 Sudeste 0 -- -- 72
2019-04-22 22:00:00 9.6 13 Sudeste 19 Sudeste 0 -- -- 74
2019-04-22 21:00:00 10.4 10 Sudeste 14 Sudeste 0 -- -- 70
2019-04-22 20:00:00 13.2 9 Oeste 20 Oeste 0 -- -- 52
2019-04-22 19:00:00 13.8 9 Sudoeste 28 Oeste 0 -- -- 54
2019-04-22 18:00:00 13.8 13 Oeste 33 Sudoeste 0 -- -- 56
2019-04-22 17:00:00 12.8 12 Sudoeste 28 Sudoeste 0 -- -- 58
2019-04-22 16:00:00 13 14 Sudoeste 26 Sudoeste 0 -- -- 58
2019-04-22 15:00:00 12.1 12 Sudoeste 26 Sudoeste 0 -- -- 61
2019-04-22 14:00:00 11 14 Sudoeste 24 Sudoeste 0 -- -- 64
2019-04-22 13:00:00 9.6 12 Oeste 21 Sudoeste 0 -- -- 72
2019-04-22 12:00:00 8.2 14 Oeste 20 Oeste 0 -- -- 77
2019-04-22 11:00:00 8.1 9 Sudoeste 14 Sudoeste 0 -- -- 77
2019-04-22 10:00:00 7.9 4 Sur 10 Sudoeste 0 -- -- 78
2019-04-22 09:00:00 7 2 Sudoeste 12 Sur 0 -- -- 80
2019-04-22 08:00:00 6.5 9 Sudeste 16 Sudeste 0 -- -- 82
2019-04-22 07:00:00 6.5 8 Sudeste 21 Sudeste 0 -- -- 82
2019-04-22 06:00:00 6.3 12 Sudeste 25 Sudeste 0 -- -- 83
2019-04-22 05:00:00 6.1 17 Sudeste 31 Sudeste 0 -- -- 85
2019-04-22 04:00:00 5.7 16 Este 28 Este 0 -- -- 86
2019-04-22 03:00:00 5.5 15 Este 27 Este 0 -- -- 88
2019-04-22 02:00:00 5.3 11 Este 27 Este 0 -- -- 88
2019-04-22 01:00:00 6.3 14 Este 27 Este 0 -- -- 85
2019-04-22 00:00:00 6.7 16 Este 24 Este 0 -- -- 80
2019-04-21 23:00:00 6.9 14 Este 25 Este 0 -- -- 77
2019-04-21 22:00:00 6.9 13 Este 22 Este 0 -- -- 78
2019-04-21 21:00:00 7.2 13 Este 22 Este 0 -- -- 77
2019-04-21 20:00:00 7.8 12 Este 32 Este 0 -- -- 74
2019-04-21 19:00:00 8.3 18 Este 32 Este 0 -- -- 73
2019-04-21 18:00:00 8.5 21 Este 32 Este 0 -- -- 72
2019-04-21 17:00:00 8.8 24 Este 35 Nordeste 0 -- -- 68
2019-04-21 16:00:00 8.9 19 Este 30 Este 0 -- -- 69
2019-04-21 15:00:00 8.6 15 Este 28 Nordeste 0 -- -- 72
2019-04-21 14:00:00 8.3 17 Nordeste 27 Nordeste 0 -- -- 74
2019-04-21 13:00:00 7.9 17 Nordeste 31 Nordeste 0 -- -- 81
2019-04-21 12:00:00 7.4 14 Nordeste 33 Nordeste 0 -- -- 82
2019-04-21 11:00:00 6.4 22 Este 39 Nordeste 0 -- -- 83
2019-04-21 10:00:00 6.7 21 Este 38 Este 0 -- -- 83
2019-04-21 09:00:00 5.6 22 Este 33 Este 0 -- -- 88
2019-04-21 08:00:00 5 20 Este 41 Este 0 -- -- 90
2019-04-21 07:00:00 5 23 Este 38 Este 0 -- -- 86
2019-04-21 06:00:00 4.9 21 Este 38 Este 0 -- -- 84
2019-04-21 05:00:00 5.6 21 Este 42 Este 0 -- -- 80
2019-04-21 04:00:00 6.7 31 Este 51 Este 0 -- -- 74
2019-04-21 03:00:00 7.3 22 Este 37 Este 0 -- -- 72
2019-04-21 02:00:00 8.3 21 Este 33 Este 0 -- -- 63
2019-04-21 01:00:00 9.2 18 Este 39 Sudeste 0 -- -- 59
2019-04-21 00:00:00 9.7 23 Sudeste 42 Sudeste 0 -- -- 59
2019-04-20 23:00:00 10.5 22 Este 37 Este 0 -- -- 57
2019-04-20 22:00:00 11.1 21 Este 38 Este 0 -- -- 53
2019-04-20 21:00:00 12.1 26 Este 43 Este 0 -- -- 50
2019-04-20 20:00:00 14.3 24 Este 45 Este 0 -- -- 46
2019-04-20 19:00:00 15.7 24 Este 41 Este 0 -- -- 44
2019-04-20 18:00:00 16.3 24 Este 48 Nordeste 0 -- -- 43
2019-04-20 17:00:00 15.9 26 Este 53 Este 0 -- -- 45
2019-04-20 16:00:00 15.9 31 Este 58 Este 0 -- -- 46
2019-04-20 15:00:00 15.4 39 Este 64 Este 0 -- -- 43
2019-04-20 14:00:00 14.9 45 Este 67 Este 0 -- -- 43
2019-04-20 13:00:00 14.2 40 Este 72 Este 0 -- -- 45
2019-04-20 12:00:00 13.1 49 Nordeste 77 Este 0 -- -- 49
2019-04-20 11:00:00 11.6 51 Este 73 Este 0 -- -- 57
2019-04-20 10:00:00 10.2 45 Este 67 Este 0 -- -- 62
2019-04-20 09:00:00 9.1 35 Este 53 Este 0 -- -- 66
2019-04-20 08:00:00 8.2 33 Este 54 Este 0 -- -- 71
2019-04-20 07:00:00 7.4 35 Nordeste 60 Este 0 -- -- 77
2019-04-20 06:00:00 7.6 33 Este 50 Nordeste 0 -- -- 76
2019-04-20 05:00:00 8.3 35 Nordeste 51 Este 0 -- -- 73
2019-04-20 04:00:00 8.1 30 Este 50 Este 0 -- -- 75
2019-04-20 03:00:00 8.4 33 Este 54 Este 0 -- -- 72
2019-04-20 02:00:00 7.9 34 Nordeste 48 Nordeste 0 -- -- 79
2019-04-20 01:00:00 8.4 30 Este 53 Este 0 -- -- 78
2019-04-20 00:00:00 8.8 31 Este 55 Este 0 -- -- 77
2019-04-19 23:00:00 9.3 33 Este 60 Este 0 -- -- 77
2019-04-19 22:00:00 9.7 35 Este 59 Este 0 -- -- 77
2019-04-19 21:00:00 9.9 33 Este 55 Este 0 -- -- 77
2019-04-19 20:00:00 10.4 39 Este 63 Este 0 -- -- 78
2019-04-19 19:00:00 10.5 35 Este 63 Este 0.2 -- -- 80
2019-04-19 18:00:00 10 32 Este 47 Nordeste 0 -- -- 89
2019-04-19 17:00:00 8.4 26 Nordeste 42 Este 0 -- -- 96
2019-04-19 16:00:00 7.5 14 Nordeste 22 Nordeste 0.2 -- -- 98
2019-04-19 15:00:00 7.7 16 Nordeste 28 Este 0 -- -- 95
2019-04-19 14:00:00 8.8 17 Este 30 Este 0 -- -- 84
2019-04-19 13:00:00 8.9 15 Este 46 Este 0 -- -- 83
2019-04-19 12:00:00 8.7 19 Este 41 Este 0 -- -- 83
2019-04-19 11:00:00 8.6 19 Este 54 Este 0 -- -- 87
2019-04-19 10:00:00 7.4 26 Este 41 Este 0 -- -- 89
2019-04-19 09:00:00 6.5 10 Este 35 Este 0 -- -- 91
2019-04-19 08:00:00 6 24 Este 40 Sudeste 0 -- -- 92
2019-04-19 07:00:00 5.7 21 Este 40 Este 0 -- -- 92
2019-04-19 06:00:00 5.9 22 Este 43 Este 0 -- -- 93
2019-04-19 05:00:00 5.8 25 Este 42 Este 0 -- -- 94
2019-04-19 04:00:00 5.9 22 Este 43 Este 0 -- -- 94
2019-04-19 03:00:00 5.8 14 Este 29 Sudeste 0 -- -- 94
2019-04-19 02:00:00 5.7 12 Sudeste 20 Este 0 -- -- 94
2019-04-19 01:00:00 5.9 3 Nordeste 25 Sudeste 0 -- -- 96
2019-04-19 00:00:00 6 10 Este 35 Este 0.8 -- -- 96
2019-04-18 23:00:00 6.1 12 Este 30 Este 0.8 -- -- 96
2019-04-18 22:00:00 6.4 14 Este 30 Este 0.2 -- -- 95
2019-04-18 21:00:00 7 19 Este 28 Este 0 -- -- 92
2019-04-18 20:00:00 7.6 20 Este 30 Este 0 -- -- 86
2019-04-18 19:00:00 8.2 15 Este 27 Este 0 -- -- 88
2019-04-18 18:00:00 8 16 Este 26 Este 0.2 -- -- 87
2019-04-18 17:00:00 8.5 12 Este 22 Este 0 -- -- 87
2019-04-18 16:00:00 8.3 7 Este 17 Este 0 -- -- 88
2019-04-18 15:00:00 7.5 9 Este 24 Este 0 -- -- 92
2019-04-18 14:00:00 6.8 15 Nordeste 21 Nordeste 0.4 -- -- 95
2019-04-18 13:00:00 6.2 13 Este 34 Este 1.2 -- -- 95
2019-04-18 12:00:00 6.7 23 Este 35 Este 0 -- -- 94
2019-04-18 11:00:00 6.6 12 Este 22 Este 0 -- -- 92
2019-04-18 10:00:00 6.4 8 Este 23 Sudeste 0 -- -- 94
2019-04-18 09:00:00 6.3 12 Sudeste 18 Sudeste 0.6 -- -- 95
2019-04-18 08:00:00 6.3 10 Sudeste 15 Sudeste 1.2 -- -- 95
2019-04-18 07:00:00 6.3 10 Sur 29 Sudoeste 1.4 -- -- 95
2019-04-18 06:00:00 6.6 20 Sudoeste 39 Sudoeste 1 -- -- 93
2019-04-18 05:00:00 7 25 Sudoeste 44 Sudoeste 1.2 -- -- 94
2019-04-18 04:00:00 7.5 23 Sudoeste 49 Sudoeste 2.2 -- -- 95
2019-04-18 03:00:00 10.9 29 Sur 46 Sur 0.2 -- -- 84
2019-04-18 02:00:00 11.7 23 Sur 44 Sudeste 0 -- -- 79
2019-04-18 01:00:00 11.7 21 Sudeste 33 Sur 0 -- -- 79
2019-04-18 00:00:00 11.4 21 Sur 39 Sur 0 -- -- 80
2019-04-17 23:00:00 11.3 22 Sur 40 Sur 0 -- -- 84
2019-04-17 22:00:00 10.6 17 Sudoeste 30 Sudoeste 0.6 -- -- 89
2019-04-17 21:00:00 9.7 14 Sudoeste 84 Sudoeste 5.6 -- -- 91
2019-04-17 20:00:00 16.4 9 Sudeste 17 Sudeste 0 -- -- 49
2019-04-17 19:00:00 16.9 11 Sudeste 39 Sur 0 -- -- 49
2019-04-17 18:00:00 17 24 Sur 42 Sur 0 -- -- 45
2019-04-17 17:00:00 17.2 20 Sur 38 Sudeste 0 -- -- 41
2019-04-17 16:00:00 17.3 18 Sur 35 Sur 0 -- -- 43
2019-04-17 15:00:00 16.6 15 Sur 32 Sur 0 -- -- 42
2019-04-17 14:00:00 16.5 21 Sur 35 Sur 0 -- -- 44
2019-04-17 13:00:00 15.2 20 Sur 45 Sudeste 0 -- -- 47
2019-04-17 12:00:00 13 14 Sur 31 Sur 0 -- -- 54
2019-04-17 11:00:00 11.5 24 Sudeste 42 Sur 0 -- -- 64
2019-04-17 10:00:00 10.6 19 Sudeste 42 Sur 0 -- -- 71
2019-04-17 09:00:00 10 24 Sudeste 40 Sudeste 0 -- -- 73
2019-04-17 08:00:00 10 21 Sudeste 39 Sudeste 0 -- -- 71
2019-04-17 07:00:00 10 19 Sudeste 40 Sudeste 0 -- -- 71
2019-04-17 06:00:00 9.8 23 Sudeste 42 Sur 0 -- -- 73
2019-04-17 05:00:00 10.3 26 Sur 45 Sudeste 0 -- -- 71
2019-04-17 04:00:00 10.4 32 Sudeste 44 Sudeste 0 -- -- 74
2019-04-17 03:00:00 10.8 24 Sudeste 34 Sudeste 0 -- -- 67
2019-04-17 02:00:00 12.4 21 Sudeste 30 Sudeste 0 -- -- 47
2019-04-17 01:00:00 12.2 17 Sudeste 27 Sudeste 0 -- -- 47
2019-04-17 00:00:00 12 16 Sudeste 27 Sudeste 0 -- -- 48
2019-04-16 23:00:00 11.6 15 Sudeste 23 Sudeste 0 -- -- 50
2019-04-16 22:00:00 12.2 16 Sudeste 25 Sudeste 0 -- -- 47
2019-04-16 21:00:00 13.2 14 Sudeste 28 Sur 0 -- -- 47
2019-04-16 20:00:00 15.3 18 Sudeste 30 Sur 0 -- -- 42
2019-04-16 19:00:00 16.5 17 Sur 27 Sur 0 -- -- 40
2019-04-16 18:00:00 17.4 15 Sur 28 Sudoeste 0 -- -- 40
2019-04-16 17:00:00 16.8 12 Sur 22 Sudeste 0 -- -- 38
2019-04-16 16:00:00 16.3 12 Sudeste 26 Sur 0 -- -- 46
2019-04-16 15:00:00 15.6 11 Sur 29 Sur 0 -- -- 43
2019-04-16 14:00:00 14.3 9 Sudeste 22 Sur 0 -- -- 39
2019-04-16 13:00:00 12.7 6 Este 18 Nordeste 0 -- -- 66
2019-04-16 12:00:00 11.1 6 Noroeste 14 Norte 0 -- -- 73
2019-04-16 11:00:00 9.3 4 Norte 11 Norte 0 -- -- 79
2019-04-16 10:00:00 8.3 4 Sudoeste 17 Sudoeste 0 -- -- 80
2019-04-16 09:00:00 6.1 7 Sudoeste 13 Sudoeste 0 -- -- 97
2019-04-16 08:00:00 4.3 9 Sudoeste 20 Sudoeste 0 -- -- 99
2019-04-16 07:00:00 4.7 10 Sudoeste 18 Sudoeste 0 -- -- 98
2019-04-16 06:00:00 4.1 11 Sur 14 Sur 0 -- -- 97
2019-04-16 05:00:00 5.1 9 Sudoeste 14 Sudoeste 0 -- -- 97
2019-04-16 04:00:00 5.6 9 Sudoeste 13 Sudoeste 0 -- -- 96
2019-04-16 03:00:00 6.1 7 Sudoeste 23 Sudoeste 0 -- -- 95
2019-04-16 02:00:00 6.5 12 Sudoeste 28 Sudoeste 0 -- -- 93
2019-04-16 01:00:00 7 19 Sudoeste 28 Sudoeste 0 -- -- 90
2019-04-16 00:00:00 6.9 16 Sudoeste 28 Sudoeste 0 -- -- 86
2019-04-15 23:00:00 8 18 Sudoeste 24 Sudoeste 0 -- -- 80
2019-04-15 22:00:00 8 14 Sudoeste 33 Oeste 0.2 -- -- 84
2019-04-15 21:00:00 9.9 30 Sudoeste 48 Oeste 0 -- -- 65
2019-04-15 20:00:00 10.9 29 Oeste 47 Oeste 0 -- -- 64
2019-04-15 19:00:00 12.4 33 Oeste 55 Oeste 0 -- -- 66
2019-04-15 18:00:00 16.6 34 Oeste 72 Sudoeste 0 -- -- 48
2019-04-15 17:00:00 19.6 49 Sudoeste 73 Sudoeste 0 -- -- 33
2019-04-15 16:00:00 18.9 49 Sudoeste 70 Sudoeste 0 -- -- 47
2019-04-15 15:00:00 18.3 31 Sudoeste 60 Sur 0 -- -- 56
2019-04-15 14:00:00 18.2 27 Sur 44 Sur 0 -- -- 60
2019-04-15 13:00:00 17.5 20 Sur 42 Sudoeste 0 -- -- 60
2019-04-15 12:00:00 16.5 21 Sudoeste 33 Sudoeste 0 -- -- 58
2019-04-15 11:00:00 15 12 Sur 22 Sur 0 -- -- 69
2019-04-15 10:00:00 14.2 11 Sudoeste 23 Sudoeste 0 -- -- 71
2019-04-15 09:00:00 13.1 17 Sudoeste 23 Sudoeste 0 -- -- 75
2019-04-15 08:00:00 12.6 15 Sudoeste 22 Sudoeste 0 -- -- 74
2019-04-15 07:00:00 12.7 15 Sur 22 Sur 0 -- -- 73
2019-04-15 06:00:00 12.7 15 Sur 23 Sur 0 -- -- 74
2019-04-15 05:00:00 12.3 16 Sudeste 20 Sudeste 0 -- -- 72
2019-04-15 04:00:00 12.6 13 Sudeste 24 Sudeste 0 -- -- 71
2019-04-15 03:00:00 12.7 15 Sudeste 23 Sudeste 0 -- -- 71
2019-04-15 02:00:00 12.9 15 Sudeste 20 Sudeste 0 -- -- 70
2019-04-15 01:00:00 12.7 12 Sudeste 19 Sudeste 0 -- -- 72
2019-04-15 00:00:00 12.5 3 Sur 8 Sur 0 -- -- 74
2019-04-14 23:00:00 12.9 6 Sur 7 Sur 0 -- -- 70
2019-04-14 22:00:00 12.6 5 Sudeste 6 Sudeste 0 -- -- 72
2019-04-14 21:00:00 14.7 2 Norte 12 Oeste 0 -- -- 64
2019-04-14 20:00:00 16.2 8 Oeste 15 Oeste 0 -- -- 58
2019-04-14 19:00:00 17 5 Noroeste 19 Oeste 0 -- -- 57
2019-04-14 18:00:00 17 12 Oeste 23 Oeste 0 -- -- 58
2019-04-14 17:00:00 16.7 15 Oeste 26 Oeste 0 -- -- 58
2019-04-14 16:00:00 16.3 13 Sudoeste 24 Sudoeste 0 -- -- 59
2019-04-14 15:00:00 14.8 16 Sudoeste 26 Sudoeste 0 -- -- 67
2019-04-14 14:00:00 12.8 20 Sudoeste 27 Sudoeste 0 -- -- 75
2019-04-14 13:00:00 10.7 15 Sudoeste 24 Sudoeste 0 -- -- 90
2019-04-14 12:00:00 9.7 17 Oeste 25 Oeste 0 -- -- 95
2019-04-14 11:00:00 10.1 17 Sudoeste 27 Sudoeste 0 -- -- 94
2019-04-14 10:00:00 9.6 16 Sudoeste 27 Sudoeste 0 -- -- 95
2019-04-14 09:00:00 9.1 17 Sudoeste 24 Sudoeste 0 -- -- 95
2019-04-14 08:00:00 9 16 Sudoeste 27 Oeste 0 -- -- 92
2019-04-14 07:00:00 9.1 17 Sudoeste 33 Sudoeste 0 -- -- 90
2019-04-14 06:00:00 9.2 24 Sudoeste 34 Sudoeste 0 -- -- 84
2019-04-14 05:00:00 9.1 21 Sudoeste 32 Sudoeste 0 -- -- 79
2019-04-14 04:00:00 9.5 22 Sudoeste 30 Sudoeste 0 -- -- 72
2019-04-14 03:00:00 9.7 18 Sudoeste 24 Sudoeste 0 -- -- 63
2019-04-14 02:00:00 10.4 16 Sudoeste 24 Sudoeste 0 -- -- 49
2019-04-14 01:00:00 11.5 14 Sudoeste 20 Sudoeste 0 -- -- 41
2019-04-14 00:00:00 11.5 12 Sudoeste 16 Sudoeste 0 -- -- 40
2019-04-13 23:00:00 11.8 7 Sudoeste 9 Sudoeste 0 -- -- 41
2019-04-13 22:00:00 12.6 3 Sudoeste 6 Oeste 0 -- -- 39
2019-04-13 21:00:00 13.3 5 Oeste 15 Noroeste 0 -- -- 38
2019-04-13 20:00:00 14.6 11 Oeste 23 Oeste 0 -- -- 34
2019-04-13 19:00:00 16.3 12 Oeste 26 Oeste 0 -- -- 31
2019-04-13 18:00:00 16.2 14 Oeste 27 Oeste 0 -- -- 27
2019-04-13 17:00:00 15.9 12 Oeste 30 Oeste 0 -- -- 25
2019-04-13 16:00:00 15.6 12 Oeste 21 Oeste 0 -- -- 29
2019-04-13 15:00:00 14.9 10 Oeste 18 Oeste 0 -- -- 29
2019-04-13 14:00:00 13.8 8 Noroeste 17 Noroeste 0 -- -- 32
2019-04-13 13:00:00 12.8 6 Noroeste 15 Noroeste 0 -- -- 39
2019-04-13 12:00:00 11.7 5 Norte 17 Norte 0 -- -- 37
2019-04-13 11:00:00 10.6 7 Noroeste 15 Oeste 0 -- -- 37
2019-04-13 10:00:00 9.2 5 Oeste 10 Sudoeste 0 -- -- 26
2019-04-13 09:00:00 6.5 5 Sudoeste 8 Sudoeste 0 -- -- 25
2019-04-13 08:00:00 5.6 5 Sudoeste 7 Sudoeste 0 -- -- 20
2019-04-13 07:00:00 5.5 6 Sudoeste 8 Sudoeste 0 -- -- 21
2019-04-13 06:00:00 4.8 6 Sudoeste 8 Sudoeste 0 -- -- 25
2019-04-13 05:00:00 5.1 6 Sudoeste 8 Sudoeste 0 -- -- 33
2019-04-13 04:00:00 5.9 4 Sudoeste 6 Sudoeste 0 -- -- 32
2019-04-13 03:00:00 5.9 4 Sudoeste 6 Sudoeste 0 -- -- 42
2019-04-13 02:00:00 6.8 2 Sudoeste 4 Oeste 0 -- -- 41
2019-04-13 01:00:00 6.9 3 Sudoeste 4 Sudoeste 0 -- -- 48
2019-04-13 00:00:00 6.7 0 Calma 5 Norte 0 -- -- 55
2019-04-12 23:00:00 6.9 3 Nordeste 8 Nordeste 0 -- -- 49
2019-04-12 22:00:00 7.6 3 Nordeste 10 Norte 0 -- -- 41
2019-04-12 21:00:00 9 8 Norte 18 Norte 0 -- -- 38
2019-04-12 20:00:00 11.6 12 Noroeste 27 Noroeste 0 -- -- 40
2019-04-12 19:00:00 12.4 15 Noroeste 30 Noroeste 0 -- -- 43
2019-04-12 18:00:00 12.3 14 Noroeste 27 Noroeste 0 -- -- 45
2019-04-12 17:00:00 11.7 12 Noroeste 35 Noroeste 0 -- -- 48
2019-04-12 16:00:00 11.4 14 Noroeste 25 Noroeste 0 -- -- 52
2019-04-12 15:00:00 10.1 13 Noroeste 28 Noroeste 0 -- -- 57
2019-04-12 14:00:00 8.9 11 Noroeste 26 Noroeste 0 -- -- 64
2019-04-12 13:00:00 7.7 15 Noroeste 27 Noroeste 0 -- -- 65
2019-04-12 12:00:00 6.8 6 Norte 16 Noroeste 0 -- -- 67
2019-04-12 11:00:00 5.2 6 Noroeste 11 Noroeste 0 -- -- 78
2019-04-12 10:00:00 3.5 5 Noroeste 10 Norte 0 -- -- 88
2019-04-12 09:00:00 2.9 0 Calma 6 Sur 0 -- -- 95
2019-04-12 08:00:00 1.1 2 Sudoeste 5 Oeste 0 -- -- 93
2019-04-12 07:00:00 1.6 0 Calma 6 Sudeste 0 -- -- 89
2019-04-12 06:00:00 1 5 Sudeste 10 Este 0 -- -- 90
2019-04-12 05:00:00 0.9 9 Este 11 Este 0 -- -- 93
2019-04-12 04:00:00 1.8 12 Este 18 Este 0 -- -- 94
2019-04-12 03:00:00 0.8 9 Este 10 Este 0 -- -- 94
2019-04-12 02:00:00 1.8 4 Este 8 Este 0 -- -- 94
2019-04-12 01:00:00 1.7 6 Este 10 Nordeste 0 -- -- 91
2019-04-12 00:00:00 2.7 8 Nordeste 11 Este 0 -- -- 89
2019-04-11 23:00:00 3.5 8 Este 11 Este 0 -- -- 85
2019-04-11 22:00:00 4.7 8 Nordeste 19 Nordeste 0 -- -- 81
2019-04-11 21:00:00 6.3 9 Nordeste 19 Nordeste 0 -- -- 75
2019-04-11 20:00:00 7.7 12 Nordeste 21 Nordeste 0 -- -- 65
2019-04-11 19:00:00 8.3 12 Norte 24 Nordeste 0 -- -- 57
2019-04-11 18:00:00 8.9 15 Norte 26 Norte 0 -- -- 56
2019-04-11 17:00:00 8.6 16 Norte 27 Noroeste 0 -- -- 57
2019-04-11 16:00:00 8.2 14 Norte 23 Noroeste 0 -- -- 62
2019-04-11 15:00:00 8.6 17 Noroeste 25 Oeste 0 -- -- 61
2019-04-11 14:00:00 7.1 13 Norte 27 Norte 0 -- -- 64
2019-04-11 13:00:00 6.3 13 Noroeste 24 Norte 0 -- -- 72
2019-04-11 12:00:00 5.6 11 Norte 23 Norte 0 -- -- 80
2019-04-11 11:00:00 3.8 14 Norte 23 Norte 0 -- -- 88
2019-04-11 10:00:00 3 9 Norte 14 Norte 0 -- -- 97
2019-04-11 09:00:00 1.4 0 Calma 5 Norte 0 -- -- 100
2019-04-11 08:00:00 0.5 3 Este 5 Norte 0 -- -- 99
2019-04-11 07:00:00 0.6 4 Nordeste 8 Nordeste 0 -- -- 99
2019-04-11 06:00:00 0.8 3 Nordeste 9 Este 0 -- -- 99
2019-04-11 05:00:00 0.8 4 Nordeste 12 Norte 0 -- -- 98
2019-04-11 04:00:00 1 7 Nordeste 13 Nordeste 0 -- -- 98
2019-04-11 03:00:00 1.3 4 Nordeste 11 Norte 0 -- -- 98
2019-04-11 02:00:00 1.9 8 Norte 14 Norte 0 -- -- 96
2019-04-11 01:00:00 2 8 Nordeste 15 Nordeste 0 -- -- 95
2019-04-11 00:00:00 2.3 6 Nordeste 15 Nordeste 0 -- -- 91
2019-04-10 23:00:00 3 9 Nordeste 17 Nordeste 0 -- -- 90
2019-04-10 22:00:00 4.3 10 Nordeste 18 Norte 0 -- -- 84
2019-04-10 21:00:00 6 16 Norte 33 Norte 0 -- -- 75
2019-04-10 20:00:00 8.3 13 Norte 21 Noroeste 0 -- -- 63
2019-04-10 19:00:00 7.5 10 Norte 22 Norte 0 -- -- 68
2019-04-10 18:00:00 7.9 10 Norte 23 Oeste 0 -- -- 67
2019-04-10 17:00:00 7.4 10 Noroeste 23 Noroeste 0 -- -- 68
2019-04-10 16:00:00 5.9 16 Noroeste 32 Noroeste 0 -- -- 84
2019-04-10 15:00:00 7.3 15 Noroeste 27 Oeste 0 -- -- 79
2019-04-10 14:00:00 5.2 13 Noroeste 23 Oeste 0.4 -- -- 95
2019-04-10 13:00:00 4 14 Oeste 24 Oeste 0 -- -- 94
2019-04-10 12:00:00 3.5 14 Oeste 29 Oeste 0 -- -- 97
2019-04-10 11:00:00 2.7 17 Oeste 27 Oeste 0 -- -- 99
2019-04-10 10:00:00 2.2 13 Oeste 35 Oeste 0.4 -- -- 99
2019-04-10 09:00:00 2.3 22 Oeste 32 Oeste 0 -- -- 100
2019-04-10 08:00:00 2.2 18 Oeste 30 Oeste 0 -- -- 100
2019-04-10 07:00:00 2.2 18 Oeste 30 Oeste 0 -- -- 99
2019-04-10 06:00:00 2.4 20 Oeste 36 Oeste 0 -- -- 99
2019-04-10 05:00:00 2.8 22 Oeste 36 Oeste 0 -- -- 99
2019-04-10 04:00:00 3.1 23 Oeste 39 Oeste 0 -- -- 98
2019-04-10 03:00:00 3.3 24 Oeste 42 Oeste 0 -- -- 98
2019-04-10 02:00:00 3.6 26 Oeste 40 Oeste 0 -- -- 96
2019-04-10 01:00:00 3.7 22 Oeste 35 Oeste 0 -- -- 95
2019-04-10 00:00:00 4.2 20 Oeste 32 Oeste 0 -- -- 89
2019-04-09 23:00:00 4.6 21 Oeste 38 Oeste 0 -- -- 83
2019-04-09 22:00:00 4.7 22 Sudoeste 30 Sudoeste 0 -- -- 82
2019-04-09 21:00:00 4.9 13 Sudoeste 33 Oeste 0 -- -- 86
2019-04-09 20:00:00 6.9 24 Oeste 46 Oeste 0 -- -- 75
2019-04-09 19:00:00 7.5 26 Oeste 42 Oeste 0 -- -- 67
2019-04-09 18:00:00 6 28 Oeste 51 Oeste 0 -- -- 74
2019-04-09 17:00:00 5.3 35 Oeste 55 Oeste 0 -- -- 78
2019-04-09 16:00:00 4.4 35 Oeste 52 Oeste 0.6 -- -- 97
2019-04-09 15:00:00 3.9 28 Sudoeste 49 Sudoeste 0.4 -- -- 98
2019-04-09 14:00:00 3.5 25 Sudoeste 50 Sudoeste 1.8 -- -- 98
2019-04-09 13:00:00 4.1 18 Sudoeste 34 Oeste 0.8 -- -- 96
2019-04-09 12:00:00 4.1 28 Sudoeste 44 Sudoeste 0.4 -- -- 92
2019-04-09 11:00:00 4.1 24 Sudoeste 34 Sudoeste 0 -- -- 97
2019-04-09 10:00:00 2.8 23 Sudoeste 36 Sudoeste 0.6 -- -- 95
2019-04-09 09:00:00 3.1 22 Sudoeste 38 Sudoeste 0 -- -- 93
2019-04-09 08:00:00 2.4 24 Sudoeste 36 Sudoeste 0 -- -- 95
2019-04-09 07:00:00 2.7 23 Sudoeste 38 Sudoeste 0 -- -- 97
2019-04-09 06:00:00 2.8 21 Sudoeste 33 Sudoeste 0 -- -- 96
2019-04-09 05:00:00 2.9 19 Sudoeste 32 Sudoeste 0 -- -- 96
2019-04-09 04:00:00 2.5 22 Sudoeste 36 Sudoeste 0 -- -- 96
2019-04-09 03:00:00 3 22 Sudoeste 39 Sudoeste 0 -- -- 95
2019-04-09 02:00:00 3.4 22 Sudoeste 35 Sudoeste 0 -- -- 95
2019-04-09 01:00:00 3.3 15 Sudoeste 27 Sudoeste 0 -- -- 92
2019-04-09 00:00:00 4.1 19 Sudoeste 29 Sudoeste 0 -- -- 91
2019-04-08 23:00:00 4.8 19 Sudoeste 32 Sudoeste 0 -- -- 89
2019-04-08 22:00:00 6 15 Sudoeste 21 Oeste 0 -- -- 80
2019-04-08 21:00:00 6.7 10 Oeste 27 Oeste 0 -- -- 71
2019-04-08 20:00:00 9.3 14 Oeste 32 Oeste 0 -- -- 61
2019-04-08 19:00:00 9 13 Oeste 29 Oeste 0 -- -- 73
2019-04-08 18:00:00 8.4 21 Oeste 44 Oeste 1 -- -- 73
2019-04-08 17:00:00 7.1 29 Oeste 45 Oeste 0 -- -- 80
2019-04-08 16:00:00 9.6 24 Sudoeste 37 Sudoeste 0 -- -- 64
2019-04-08 15:00:00 9.1 23 Oeste 41 Oeste 0 -- -- 72
2019-04-08 14:00:00 7.9 29 Sudoeste 41 Sudoeste 0.4 -- -- 76
2019-04-08 13:00:00 6.6 20 Oeste 32 Oeste 0.2 -- -- 90
2019-04-08 12:00:00 7.3 23 Oeste 36 Oeste 0 -- -- 89
2019-04-08 11:00:00 6.1 20 Oeste 36 Oeste 0 -- -- 98
2019-04-08 10:00:00 5.6 21 Oeste 40 Oeste 0.4 -- -- 100
2019-04-08 09:00:00 5.5 23 Sudoeste 42 Sudoeste 0 -- -- 100
2019-04-08 08:00:00 5.6 35 Sudoeste 54 Sudoeste 0.4 -- -- 99
2019-04-08 07:00:00 5.4 24 Sudoeste 39 Sudoeste 0.2 -- -- 98
2019-04-08 06:00:00 5.6 24 Sudoeste 36 Sudoeste 0.4 -- -- 96
2019-04-08 05:00:00 5.8 23 Sudoeste 37 Sudoeste 0 -- -- 95
2019-04-08 04:00:00 5.9 27 Sudoeste 39 Sudoeste 0 -- -- 96
2019-04-08 03:00:00 6 25 Sudoeste 39 Sudoeste 0 -- -- 96
2019-04-08 02:00:00 5.9 26 Sudoeste 42 Sudoeste 0 -- -- 97
2019-04-08 01:00:00 5.2 23 Sudoeste 37 Sudoeste 0.2 -- -- 98
2019-04-08 00:00:00 4.4 22 Sur 37 Sur 0.2 -- -- 96
2019-04-07 23:00:00 3.7 17 Sur 28 Sur 0.6 -- -- 94
2019-04-07 22:00:00 2.8 14 Sur 25 Sur 0.4 -- -- 95
2019-04-07 21:00:00 3 13 Sudoeste 26 Sudoeste 0.6 -- -- 95
2019-04-07 20:00:00 3.3 18 Sudoeste 39 Sudoeste 0.8 -- -- 92
2019-04-07 19:00:00 5.8 26 Sudoeste 42 Oeste 0 -- -- 77
2019-04-07 18:00:00 7.9 21 Sudoeste 36 Sudoeste 0 -- -- 56
2019-04-07 17:00:00 8.3 21 Sudoeste 35 Sudoeste 0 -- -- 54
2019-04-07 16:00:00 8 20 Sudoeste 36 Sudoeste 0 -- -- 56
2019-04-07 15:00:00 7.5 23 Sudoeste 35 Oeste 0 -- -- 53
2019-04-07 14:00:00 6.7 21 Sudoeste 38 Oeste 0 -- -- 61
2019-04-07 13:00:00 4 21 Oeste 31 Oeste 0 -- -- 81
2019-04-07 12:00:00 2.1 23 Sudoeste 30 Oeste 0 -- -- 88
2019-04-07 11:00:00 1.5 22 Sudoeste 30 Sudoeste 0 -- -- 94
2019-04-07 10:00:00 0.8 19 Oeste 32 Oeste 0 -- -- 97
2019-04-07 09:00:00 0.6 21 Oeste 35 Oeste 0 -- -- 97
2019-04-07 08:00:00 0.4 23 Oeste 37 Sudoeste 0 -- -- 99
2019-04-07 07:00:00 0.5 19 Oeste 36 Oeste 0 -- -- 99
2019-04-07 06:00:00 0.7 24 Oeste 39 Sudoeste 0 -- -- 99
2019-04-07 05:00:00 0.9 22 Oeste 37 Oeste 0 -- -- 100
2019-04-07 04:00:00 0.9 27 Oeste 43 Sudoeste 0 -- -- 99
2019-04-07 03:00:00 1.2 31 Oeste 46 Oeste 0 -- -- 98
2019-04-07 02:00:00 1.1 29 Oeste 53 Sudoeste 0 -- -- 97
2019-04-07 01:00:00 1.2 32 Sudoeste 49 Sudoeste 0 -- -- 96
2019-04-07 00:00:00 1.6 31 Sudoeste 50 Sudoeste 0 -- -- 88
2019-04-06 23:00:00 2.8 30 Oeste 45 Oeste 0 -- -- 81
2019-04-06 22:00:00 2.9 33 Oeste 58 Oeste 0 -- -- 80
2019-04-06 21:00:00 3.5 29 Oeste 46 Oeste 0 -- -- 81
2019-04-06 20:00:00 3.7 30 Oeste 58 Oeste 0 -- -- 83
2019-04-06 19:00:00 3.7 37 Oeste 66 Oeste 0 -- -- 85
2019-04-06 18:00:00 3.6 32 Oeste 62 Sudoeste 0 -- -- 94
2019-04-06 17:00:00 0.9 33 Oeste 80 Oeste 0.4 -- -- 96
2019-04-06 16:00:00 4.8 32 Sudoeste 64 Sudoeste 0.4 -- -- 88
2019-04-06 15:00:00 3.9 33 Sudoeste 59 Oeste 0.2 -- -- 97
2019-04-06 14:00:00 2.5 42 Oeste 64 Sudoeste 0.2 -- -- 97
2019-04-06 13:00:00 2.5 35 Sudoeste 60 Sudoeste 0.2 -- -- 92
2019-04-06 12:00:00 2.3 31 Sudoeste 54 Sudoeste 0.8 -- -- 95
2019-04-06 11:00:00 1.2 31 Sudoeste 49 Sudoeste 1 -- -- 100
2019-04-06 10:00:00 0.7 24 Sudoeste 46 Sudoeste 0.4 -- -- 100
2019-04-06 09:00:00 0.1 21 Sudoeste 32 Sudoeste 0 -- -- 100
2019-04-06 08:00:00 0 22 Sudoeste 43 Sudoeste 0 -- -- 100
2019-04-06 07:00:00 0.1 29 Sudoeste 44 Sudoeste 0 -- -- 100
2019-04-06 06:00:00 0 23 Sudoeste 45 Sudoeste 0 -- -- 100
2019-04-06 05:00:00 0.2 30 Sudoeste 46 Sudoeste 0.2 -- -- 100
2019-04-06 04:00:00 0.3 28 Sudoeste 39 Oeste 0.2 -- -- 100
2019-04-06 03:00:00 0.2 22 Sudoeste 37 Sudoeste 0.4 -- -- 100
2019-04-06 02:00:00 0.4 22 Sudoeste 40 Sudoeste 0.2 -- -- 100
2019-04-06 01:00:00 0.5 21 Sudoeste 38 Sudoeste 0 -- -- 100
2019-04-06 00:00:00 0.5 23 Sudoeste 33 Sudoeste 0 -- -- 99
2019-04-05 23:00:00 0.6 24 Sudoeste 35 Sudoeste 0 -- -- 97
2019-04-05 22:00:00 0 14 Sudoeste 23 Sudoeste 0 -- -- 96
2019-04-05 21:00:00 -0.2 12 Sudoeste 23 Sudoeste 0 -- -- 98
2019-04-05 20:00:00 -0.1 6 Sudeste 16 Noroeste 0 -- -- 98
2019-04-05 19:00:00 -0.1 13 Oeste 30 Oeste 0 -- -- 97
2019-04-05 18:00:00 2.4 13 Sudoeste 24 Sudoeste 0 -- -- 90
2019-04-05 17:00:00 2 14 Sudoeste 21 Sudoeste 0.4 -- -- 97
2019-04-05 16:00:00 1.3 12 Sudoeste 19 Oeste 1.6 -- -- 100
2019-04-05 15:00:00 0.1 7 Sudoeste 24 Oeste 0.2 -- -- 100
2019-04-05 14:00:00 0 15 Oeste 24 Oeste 0.2 -- -- 97
2019-04-05 13:00:00 2.2 13 Oeste 18 Oeste 0 -- -- 97
2019-04-05 12:00:00 1.3 9 Oeste 19 Sudoeste 0.8 -- -- 98
2019-04-05 11:00:00 1.6 15 Sudoeste 32 Oeste 0.2 -- -- 95
2019-04-05 10:00:00 3.1 7 Sudoeste 18 Sur 0 -- -- 93
2019-04-05 09:00:00 2.8 12 Sur 21 Sur 0 -- -- 93
2019-04-05 08:00:00 2.4 10 Sudoeste 28 Sudoeste 0.4 -- -- 93
2019-04-05 07:00:00 2.3 15 Sur 35 Sudoeste 0.4 -- -- 94
2019-04-05 06:00:00 2.4 17 Sudoeste 40 Sudoeste 0.2 -- -- 91
2019-04-05 05:00:00 2.1 18 Sur 31 Sur 0.2 -- -- 90
2019-04-05 04:00:00 1.9 17 Sudoeste 27 Sur 0 -- -- 91
2019-04-05 03:00:00 1.9 6 Sudoeste 14 Sudoeste 0.2 -- -- 90
2019-04-05 02:00:00 2.5 5 Sudoeste 8 Sudoeste 0 -- -- 84
2019-04-05 01:00:00 2.7 2 Oeste 6 Noroeste 0 -- -- 80
2019-04-05 00:00:00 3 4 Nordeste 12 Oeste 0 -- -- 73
2019-04-04 23:00:00 3.8 9 Oeste 23 Sudoeste 0 -- -- 66
2019-04-04 22:00:00 5.1 13 Oeste 23 Oeste 0 -- -- 51
2019-04-04 21:00:00 6.1 11 Oeste 18 Oeste 0 -- -- 42
2019-04-04 20:00:00 6.9 15 Oeste 28 Oeste 0 -- -- 39
2019-04-04 19:00:00 7.6 18 Oeste 36 Sudoeste 0 -- -- 35
2019-04-04 18:00:00 8.2 23 Sudoeste 45 Sudoeste 0 -- -- 32
2019-04-04 17:00:00 9.1 23 Sudoeste 43 Sudoeste 0 -- -- 31
2019-04-04 16:00:00 8.3 21 Sudoeste 40 Sudoeste 0 -- -- 37
2019-04-04 15:00:00 6.4 23 Sudoeste 35 Sudoeste 0 -- -- 39
2019-04-04 14:00:00 6.1 17 Sudoeste 35 Sudoeste 0 -- -- 43
2019-04-04 13:00:00 4.6 18 Sudoeste 30 Sudoeste 0 -- -- 51
2019-04-04 12:00:00 2.6 21 Sudoeste 33 Sudoeste 0 -- -- 60
2019-04-04 11:00:00 1.1 17 Sudoeste 28 Oeste 0 -- -- 70
2019-04-04 10:00:00 -0.9 18 Sudoeste 30 Sudoeste 0 -- -- 81
2019-04-04 09:00:00 -2.8 13 Sudoeste 19 Sudoeste 0 -- -- 88
2019-04-04 08:00:00 -3.7 10 Sudoeste 18 Sudoeste 0 -- -- 89
2019-04-04 07:00:00 -3.7 8 Sudoeste 17 Sudoeste 0 -- -- 89
2019-04-04 06:00:00 -3.8 11 Sudoeste 15 Sudoeste 0 -- -- 89
2019-04-04 05:00:00 -3.6 6 Sudoeste 11 Oeste 0 -- -- 83
2019-04-04 04:00:00 -3.1 7 Oeste 15 Oeste 0 -- -- 80
2019-04-04 03:00:00 -1.8 4 Oeste 9 Noroeste 0 -- -- 74
2019-04-04 02:00:00 -1.4 2 Oeste 10 Noroeste 0 -- -- 73
2019-04-04 01:00:00 -0.8 7 Noroeste 16 Norte 0 -- -- 73
2019-04-04 00:00:00 -0.1 7 Norte 12 Norte 0 -- -- 72
2019-04-03 23:00:00 0.1 4 Este 15 Norte 0 -- -- 72
2019-04-03 22:00:00 2.1 11 Norte 29 Noroeste 0 -- -- 56
2019-04-03 21:00:00 3.6 13 Noroeste 33 Noroeste 0 -- -- 54
2019-04-03 20:00:00 5.1 21 Noroeste 43 Noroeste 0 -- -- 55
2019-04-03 19:00:00 6.1 21 Noroeste 42 Noroeste 0 -- -- 55
2019-04-03 18:00:00 7.2 24 Noroeste 45 Noroeste 0 -- -- 46
2019-04-03 17:00:00 7.5 25 Oeste 45 Oeste 0 -- -- 41
2019-04-03 16:00:00 7.6 27 Oeste 44 Oeste 0 -- -- 40
2019-04-03 15:00:00 6.6 22 Oeste 36 Oeste 0 -- -- 46
2019-04-03 14:00:00 6.2 21 Oeste 38 Oeste 0 -- -- 56
2019-04-03 13:00:00 5.8 19 Oeste 28 Sudoeste 0 -- -- 63
2019-04-03 12:00:00 3.5 16 Oeste 27 Oeste 0 -- -- 81
2019-04-03 11:00:00 3.2 14 Oeste 26 Oeste 0 -- -- 85
2019-04-03 10:00:00 3.3 16 Oeste 23 Oeste 0 -- -- 86
2019-04-03 09:00:00 2.7 12 Sudoeste 22 Sudoeste 0 -- -- 91
2019-04-03 08:00:00 3.3 14 Oeste 23 Sudoeste 0 -- -- 89
2019-04-03 07:00:00 3.5 15 Sudoeste 22 Sudoeste 0 -- -- 85
2019-04-03 06:00:00 3.8 14 Sudoeste 18 Sudoeste 0 -- -- 82
2019-04-03 05:00:00 4.2 13 Sudoeste 18 Sudoeste 0 -- -- 84
2019-04-03 04:00:00 4.5 11 Sudoeste 15 Sudoeste 0 -- -- 88
2019-04-03 03:00:00 3.6 8 Sur 10 Sur 0 -- -- 88
2019-04-03 02:00:00 4.8 4 Oeste 18 Sudoeste 0 -- -- 79
2019-04-03 01:00:00 6.6 15 Sudoeste 31 Sudoeste 0 -- -- 61
2019-04-03 00:00:00 8.5 24 Sudoeste 35 Sudoeste 0 -- -- 51
2019-04-02 23:00:00 9 17 Sudoeste 23 Sudoeste 0 -- -- 54
2019-04-02 22:00:00 8.7 10 Sudoeste 17 Oeste 0 -- -- 53
2019-04-02 21:00:00 10.5 13 Oeste 32 Oeste 0 -- -- 48
2019-04-02 20:00:00 13.2 22 Oeste 34 Oeste 0 -- -- 44
2019-04-02 19:00:00 14.2 23 Oeste 46 Oeste 0 -- -- 42
2019-04-02 18:00:00 14.9 27 Oeste 40 Oeste 0 -- -- 38
2019-04-02 17:00:00 12.6 12 Oeste 32 Oeste 0 -- -- 58
2019-04-02 16:00:00 13.7 19 Sudoeste 35 Sudoeste 0 -- -- 50
2019-04-02 15:00:00 12.4 21 Oeste 36 Sudoeste 0 -- -- 56
2019-04-02 14:00:00 13.1 22 Sudoeste 33 Sudoeste 0 -- -- 56
2019-04-02 13:00:00 11.4 21 Sudoeste 30 Sudoeste 0 -- -- 65
2019-04-02 12:00:00 10.7 18 Oeste 30 Sudoeste 0 -- -- 68
2019-04-02 11:00:00 9.1 19 Oeste 29 Sudoeste 0 -- -- 74
2019-04-02 10:00:00 7.9 13 Sudoeste 26 Sudoeste 0 -- -- 77
2019-04-02 09:00:00 5.9 13 Sudoeste 19 Sudoeste 0 -- -- 84
2019-04-02 08:00:00 5.1 10 Sudoeste 23 Sudoeste 0 -- -- 85
2019-04-02 07:00:00 5.5 14 Sudoeste 23 Sudoeste 0 -- -- 82
2019-04-02 06:00:00 6 15 Sudoeste 27 Sudoeste 0 -- -- 81
2019-04-02 05:00:00 6.2 13 Sudoeste 21 Sudoeste 0 -- -- 79
2019-04-02 04:00:00 6.4 12 Sudoeste 22 Sudoeste 0 -- -- 79
2019-04-02 03:00:00 7.5 12 Sudoeste 17 Sudoeste 0 -- -- 72
2019-04-02 02:00:00 7.8 10 Sudoeste 13 Sudoeste 0 -- -- 69
2019-04-02 01:00:00 8.3 6 Sudoeste 8 Sudoeste 0 -- -- 63
2019-04-02 00:00:00 8.5 3 Sur 13 Sudeste 0 -- -- 55
2019-04-01 23:00:00 8.6 7 Este 9 Este 0 -- -- 55
2019-04-01 22:00:00 8.6 4 Este 6 Este 0 -- -- 55
2019-04-01 21:00:00 10.5 4 Norte 13 Noroeste 0 -- -- 47
2019-04-01 20:00:00 12.6 9 Noroeste 20 Oeste 0 -- -- 44
2019-04-01 19:00:00 13.6 5 Norte 22 Sudoeste 0 -- -- 38
2019-04-01 18:00:00 14.4 9 Noroeste 31 Noroeste 0 -- -- 41
2019-04-01 17:00:00 14.1 9 Oeste 28 Oeste 0 -- -- 45
2019-04-01 16:00:00 13.8 11 Sudoeste 23 Oeste 0 -- -- 47
2019-04-01 15:00:00 11.6 5 Sur 14 Norte 0 -- -- 57
2019-04-01 14:00:00 11.1 5 Norte 14 Sudoeste 0 -- -- 62
2019-04-01 13:00:00 10 5 Oeste 15 Sudoeste 0 -- -- 67
2019-04-01 12:00:00 8.9 7 Sudoeste 14 Oeste 0 -- -- 72
2019-04-01 11:00:00 7.9 6 Noroeste 16 Sudoeste 0 -- -- 80
2019-04-01 10:00:00 6.9 10 Sudoeste 15 Oeste 0 -- -- 86
2019-04-01 09:00:00 4.7 0 Calma 5 Noroeste 0 -- -- 94
2019-04-01 08:00:00 4.3 4 Oeste 12 Sudoeste 0 -- -- 93
2019-04-01 07:00:00 3.6 3 Sudoeste 9 Sur 0 -- -- 95
2019-04-01 06:00:00 3.3 0 Calma 12 Sudeste 0 -- -- 93
2019-04-01 05:00:00 4 3 Norte 17 Sudeste 0 -- -- 93
2019-04-01 04:00:00 3.9 7 Este 15 Este 0 -- -- 94
2019-04-01 03:00:00 4 9 Este 36 Este 0 -- -- 93
2019-04-01 02:00:00 4.3 19 Este 36 Este 0 -- -- 92
2019-04-01 01:00:00 4.6 23 Este 40 Este 0 -- -- 91
2019-04-01 00:00:00 5 20 Este 38 Este 0 -- -- 89
2019-03-31 23:00:00 5.2 24 Este 48 Este 0 -- -- 87
2019-03-31 22:00:00 5.4 28 Este 46 Este 0 -- -- 87
2019-03-31 21:00:00 6 25 Este 48 Este 0 -- -- 86
2019-03-31 20:00:00 6.7 28 Este 50 Este 0 -- -- 85
2019-03-31 19:00:00 8.2 28 Este 43 Este 0 -- -- 79
2019-03-31 18:00:00 9.9 28 Este 46 Este 0 -- -- 69
2019-03-31 17:00:00 11.3 24 Este 38 Este 0 -- -- 60
2019-03-31 16:00:00 12.5 21 Este 39 Este 0 -- -- 52
2019-03-31 15:00:00 12.5 24 Este 46 Este 0 -- -- 49
2019-03-31 14:00:00 13.6 26 Este 42 Este 0 -- -- 48
2019-03-31 13:00:00 13.7 21 Este 33 Este 0 -- -- 48
2019-03-31 12:00:00 12 14 Este 32 Este 0 -- -- 55
2019-03-31 11:00:00 12 21 Este 30 Sudeste 0 -- -- 56
2019-03-31 10:00:00 9.4 14 Sudeste 32 Sudeste 0 -- -- 59
2019-03-31 09:00:00 8.7 20 Sudeste 32 Sudeste 0 -- -- 65
2019-03-31 08:00:00 7.3 12 Este 20 Este 0 -- -- 68
2019-03-31 07:00:00 6.8 10 Este 22 Sudeste 0 -- -- 61
2019-03-31 06:00:00 6.9 12 Este 19 Sudeste 0 -- -- 56
2019-03-31 05:00:00 8.5 15 Sudeste 26 Sudeste 0 -- -- 47
2019-03-31 03:00:00 8 17 Sudeste 32 Sudeste 0 -- -- 46
2019-03-31 01:00:00 8.8 21 Sudeste 31 Sudeste 0 -- -- 45
2019-03-31 00:00:00 9.2 17 Este 31 Este 0 -- -- 43
2019-03-30 23:00:00 9.5 16 Este 27 Sudeste 0 -- -- 40
2019-03-30 22:00:00 10.2 17 Sudeste 24 Sudeste 0 -- -- 39
2019-03-30 21:00:00 10.8 15 Sudeste 21 Sudeste 0 -- -- 38
2019-03-30 20:00:00 11.4 8 Este 23 Este 0 -- -- 37
2019-03-30 19:00:00 13.7 19 Este 24 Este 0 -- -- 32
2019-03-30 18:00:00 14.8 10 Nordeste 18 Este 0 -- -- 25
2019-03-30 17:00:00 15.5 4 Sudeste 17 Este 0 -- -- 25
2019-03-30 16:00:00 14.6 10 Nordeste 31 Nordeste 0 -- -- 26
2019-03-30 15:00:00 14.6 11 Nordeste 26 Nordeste 0 -- -- 30
2019-03-30 14:00:00 12.5 4 Nordeste 17 Nordeste 0 -- -- 33
2019-03-30 13:00:00 13.8 9 Sudeste 16 Nordeste 0 -- -- 35
2019-03-30 12:00:00 12.9 6 Nordeste 17 Nordeste 0 -- -- 39
2019-03-30 11:00:00 11.6 11 Norte 17 Norte 0 -- -- 46
2019-03-30 10:00:00 11 7 Nordeste 15 Nordeste 0 -- -- 46
2019-03-30 09:00:00 9.1 9 Sudeste 15 Sudeste 0 -- -- 50
2019-03-30 08:00:00 6.7 4 Sudeste 15 Sudeste 0 -- -- 59
2019-03-30 07:00:00 5.7 10 Sudeste 18 Sudeste 0 -- -- 62
2019-03-30 06:00:00 5.3 2 Este 12 Este 0 -- -- 64
2019-03-30 05:00:00 5.5 4 Noroeste 12 Sudeste 0 -- -- 63
2019-03-30 04:00:00 5.8 14 Sudeste 31 Sudeste 0 -- -- 65
2019-03-30 03:00:00 5.9 19 Sudeste 31 Sudeste 0 -- -- 64
2019-03-30 02:00:00 6.4 21 Sudeste 38 Sur 0 -- -- 61
2019-03-30 01:00:00 7.8 29 Sur 44 Sur 0 -- -- 55
2019-03-30 00:00:00 8.4 28 Sur 38 Sur 0 -- -- 50
2019-03-29 23:00:00 8.7 21 Sur 34 Sudeste 0 -- -- 46
2019-03-29 22:00:00 9.3 14 Sudeste 28 Sur 0 -- -- 37
2019-03-29 21:00:00 9.6 17 Sudeste 29 Sur 0 -- -- 36
2019-03-29 20:00:00 10.7 19 Sur 30 Sur 0 -- -- 34
2019-03-29 19:00:00 11.9 19 Sudeste 31 Sudeste 0 -- -- 31
2019-03-29 18:00:00 13.8 18 Sudeste 30 Sudeste 0 -- -- 30
2019-03-29 17:00:00 14.8 13 Sudeste 25 Sudeste 0 -- -- 29
2019-03-29 16:00:00 15.5 12 Sudoeste 27 Sudeste 0 -- -- 29
2019-03-29 15:00:00 14.8 11 Sudeste 27 Sudeste 0 -- -- 29
2019-03-29 14:00:00 15 16 Sudoeste 27 Sudeste 0 -- -- 28
2019-03-29 13:00:00 14.3 13 Sudoeste 21 Sudoeste 0 -- -- 32
2019-03-29 12:00:00 13.2 12 Sudeste 27 Sur 0 -- -- 32
2019-03-29 11:00:00 11.9 21 Sudeste 35 Sudeste 0 -- -- 34
2019-03-29 10:00:00 10.2 25 Sudeste 36 Sudeste 0 -- -- 40
2019-03-29 09:00:00 8.7 20 Sudeste 32 Sudeste 0 -- -- 42
2019-03-29 08:00:00 6.9 19 Sudeste 30 Sudeste 0 -- -- 45
2019-03-29 07:00:00 5.9 19 Sudeste 29 Sudeste 0 -- -- 46
2019-03-29 06:00:00 6.7 17 Sudeste 27 Sudeste 0 -- -- 41
2019-03-29 05:00:00 7.2 14 Sur 24 Sur 0 -- -- 40
2019-03-29 04:00:00 7.5 17 Sur 31 Sur 0 -- -- 39
2019-03-29 03:00:00 7.6 18 Sur 32 Sur 0 -- -- 39
2019-03-29 02:00:00 8.5 10 Sudoeste 27 Sur 0 -- -- 39
2019-03-29 01:00:00 9.1 17 Sudeste 26 Sudeste 0 -- -- 37
2019-03-29 00:00:00 8.9 15 Sudeste 24 Sudeste 0 -- -- 38
2019-03-28 23:00:00 9.2 13 Sudeste 23 Sudeste 0 -- -- 39
2019-03-28 22:00:00 8.7 6 Este 13 Este 0 -- -- 40
2019-03-28 21:00:00 9.9 6 Nordeste 13 Nordeste 0 -- -- 49
2019-03-28 20:00:00 11.9 8 Nordeste 15 Norte 0 -- -- 39
2019-03-28 19:00:00 14.3 9 Nordeste 26 Norte 0 -- -- 26
2019-03-28 18:00:00 15.4 15 Norte 28 Nordeste 0 -- -- 26
2019-03-28 17:00:00 15.9 11 Norte 24 Nordeste 0 -- -- 26
2019-03-28 16:00:00 15.6 9 Norte 25 Norte 0 -- -- 29
2019-03-28 15:00:00 15.2 8 Noroeste 22 Norte 0 -- -- 29
2019-03-28 14:00:00 14.3 9 Norte 23 Noroeste 0 -- -- 32
2019-03-28 13:00:00 13.8 14 Oeste 22 Oeste 0 -- -- 33
2019-03-28 12:00:00 12.9 6 Sur 15 Sur 0 -- -- 31
2019-03-28 11:00:00 11.7 7 Este 19 Nordeste 0 -- -- 35
2019-03-28 10:00:00 10.1 13 Nordeste 20 Nordeste 0 -- -- 39
2019-03-28 09:00:00 7.8 12 Este 22 Este 0 -- -- 43
2019-03-28 08:00:00 5.5 12 Nordeste 19 Este 0 -- -- 47
2019-03-28 07:00:00 4.6 9 Este 31 Este 0 -- -- 46
2019-03-28 06:00:00 5.2 23 Este 35 Este 0 -- -- 45
2019-03-28 05:00:00 6 17 Este 36 Este 0 -- -- 38
2019-03-28 04:00:00 6.2 19 Este 30 Este 0 -- -- 36
2019-03-28 03:00:00 6.1 19 Este 45 Este 0 -- -- 35
2019-03-28 02:00:00 6.5 24 Este 36 Este 0 -- -- 33
2019-03-28 01:00:00 6.5 19 Este 30 Este 0 -- -- 33
2019-03-28 00:00:00 7.1 17 Este 27 Este 0 -- -- 38
2019-03-27 23:00:00 6.3 15 Este 22 Este 0 -- -- 40
2019-03-27 22:00:00 6.1 14 Este 18 Nordeste 0 -- -- 40
2019-03-27 21:00:00 8.1 10 Nordeste 24 Este 0 -- -- 32
2019-03-27 20:00:00 11.8 19 Este 36 Nordeste 0 -- -- 24
2019-03-27 19:00:00 13.7 22 Nordeste 34 Norte 0 -- -- 24
2019-03-27 18:00:00 16.1 9 Nordeste 30 Nordeste 0 -- -- 20
2019-03-27 17:00:00 15.9 13 Nordeste 29 Norte 0 -- -- 19
2019-03-27 16:00:00 15.9 18 Nordeste 32 Nordeste 0 -- -- 19
2019-03-27 15:00:00 15.5 19 Nordeste 39 Este 0 -- -- 20
2019-03-27 14:00:00 14.5 16 Nordeste 34 Nordeste 0 -- -- 21
2019-03-27 13:00:00 13.8 17 Nordeste 39 Nordeste 0 -- -- 21
2019-03-27 12:00:00 13.2 19 Este 35 Este 0 -- -- 21
2019-03-27 11:00:00 12.1 16 Nordeste 27 Nordeste 0 -- -- 25
2019-03-27 10:00:00 9.9 21 Nordeste 35 Este 0 -- -- 31
2019-03-27 09:00:00 8.3 20 Nordeste 36 Este 0 -- -- 31
2019-03-27 08:00:00 5 12 Nordeste 30 Este 0 -- -- 38
2019-03-27 07:00:00 5.2 21 Este 38 Este 0 -- -- 35
2019-03-27 06:00:00 5.1 21 Este 35 Este 0 -- -- 35
2019-03-27 05:00:00 5.5 24 Este 45 Este 0 -- -- 33
2019-03-27 04:00:00 5.7 22 Este 42 Este 0 -- -- 30
2019-03-27 03:00:00 6.4 22 Este 37 Este 0 -- -- 26
2019-03-27 02:00:00 6.6 23 Este 40 Este 0 -- -- 26
2019-03-27 01:00:00 6.4 17 Este 33 Este 0 -- -- 27
2019-03-27 00:00:00 6.3 15 Este 39 Este 0 -- -- 27
2019-03-26 23:00:00 7.1 26 Este 43 Este 0 -- -- 25
2019-03-26 22:00:00 8.3 29 Este 44 Este 0 -- -- 23
2019-03-26 21:00:00 9.8 23 Este 36 Este 0 -- -- 22
2019-03-26 20:00:00 11 23 Este 35 Este 0 -- -- 19
2019-03-26 19:00:00 13 21 Este 41 Este 0 -- -- 18
2019-03-26 18:00:00 14.3 27 Este 45 Este 0 -- -- 16
2019-03-26 17:00:00 15 28 Este 43 Nordeste 0 -- -- 20
2019-03-26 16:00:00 15.3 27 Este 49 Este 0 -- -- 21
2019-03-26 15:00:00 14.8 28 Este 53 Nordeste 0 -- -- 24
2019-03-26 14:00:00 13.8 33 Este 53 Este 0 -- -- 27
2019-03-26 13:00:00 12.8 28 Este 49 Nordeste 0 -- -- 33
2019-03-26 12:00:00 11.9 29 Nordeste 45 Nordeste 0 -- -- 34
2019-03-26 11:00:00 10 31 Este 53 Este 0 -- -- 31
2019-03-26 10:00:00 8.3 27 Este 45 Este 0 -- -- 35
2019-03-26 09:00:00 5.9 27 Este 43 Este 0 -- -- 40
2019-03-26 08:00:00 4.7 19 Este 39 Este 0 -- -- 46
2019-03-26 07:00:00 2.5 16 Este 32 Este 0 -- -- 63
2019-03-26 06:00:00 1.9 15 Este 24 Este 0 -- -- 68
2019-03-26 05:00:00 2.4 18 Este 30 Este 0 -- -- 67
2019-03-26 04:00:00 2.6 19 Este 34 Este 0 -- -- 68
2019-03-26 03:00:00 0.3 20 Nordeste 27 Nordeste 0 -- -- 78
2019-03-26 02:00:00 0.7 10 Este 14 Este 0 -- -- 77
2019-03-26 01:00:00 0.4 9 Nordeste 15 Este 0 -- -- 77
2019-03-26 00:00:00 1.4 7 Nordeste 13 Nordeste 0 -- -- 74
2019-03-25 23:00:00 2.3 8 Nordeste 13 Nordeste 0 -- -- 71
2019-03-25 22:00:00 3.2 9 Nordeste 17 Nordeste 0 -- -- 70
2019-03-25 21:00:00 4.8 11 Nordeste 18 Nordeste 0 -- -- 63
2019-03-25 20:00:00 7 14 Nordeste 27 Nordeste 0 -- -- 56
2019-03-25 19:00:00 10 18 Norte 31 Norte 0 -- -- 49
2019-03-25 18:00:00 12.4 19 Norte 31 Norte 0 -- -- 38
2019-03-25 17:00:00 13.8 16 Norte 26 Norte 0 -- -- 38
2019-03-25 16:00:00 13.8 15 Norte 27 Nordeste 0 -- -- 41
2019-03-25 15:00:00 14 12 Norte 21 Noroeste 0 -- -- 38
2019-03-25 14:00:00 13.3 12 Norte 24 Nordeste 0 -- -- 42
2019-03-25 13:00:00 12.2 9 Norte 20 Norte 0 -- -- 43
2019-03-25 12:00:00 11.4 10 Norte 19 Nordeste 0 -- -- 45
2019-03-25 11:00:00 10 9 Nordeste 15 Nordeste 0 -- -- 53
2019-03-25 10:00:00 7.5 8 Nordeste 16 Nordeste 0 -- -- 58
2019-03-25 09:00:00 7.4 10 Norte 16 Nordeste 0 -- -- 55
2019-03-25 08:00:00 6.9 9 Este 17 Este 0 -- -- 52
2019-03-25 07:00:00 4.5 10 Este 13 Este 0 -- -- 57
2019-03-25 06:00:00 8 8 Este 22 Sudeste 0 -- -- 46
2019-03-25 05:00:00 8 13 Sudeste 17 Sudeste 0 -- -- 45
2019-03-25 04:00:00 8.4 12 Sudeste 22 Sudeste 0 -- -- 44
2019-03-25 03:00:00 8.9 12 Este 23 Este 0 -- -- 44
2019-03-25 02:00:00 9.2 12 Este 28 Sudeste 0 -- -- 44
2019-03-25 01:00:00 9.3 20 Este 38 Sudeste 0 -- -- 46
2019-03-25 00:00:00 9.7 16 Este 36 Este 0 -- -- 46